Climatologie pour Saint-Brevin les Pins
Jour • Résumé pour mai 23, 2017 Système :  Métrique    Anglais   Mixte
« - 1 jour
+ 1 jour »
Jour Semaine Mois Année Personnalisé
  Maximum : Minimum : Moyenne :
Température sous abri : 21.3 °C 10.3 °C 16 °C
Point de rosée : 16.7 °C 9.8 °C 13.3 °C
Humidité : 98 % 63 % 85 %
Vitesse du vent : 19.3 km/h 0.0 km/h 3.9 km/h
Rafale : 22.5 km/h - -
Direction :- - SSW
Pression : 1024.9 hPa 1019.2 hPa -
Précipitations : 0.0 mm    
Historical Graphs
 
 
Tableau de données pour mai 23, 2017
Heure Tempé Pt rosée Pression Vent Vitesse Rafale Humidité Taux pluie (/hr) Soleil
00:00 13.7 °C 12.9 °C 1019.2 hPa Calm   6.4 km/h 95 % 0.0 mm 0 W/m2
00:05 13.7 °C 12.9 °C 1019.2 hPa Calm   6.4 km/h 95 % 0.0 mm 0 W/m2
00:10 13.7 °C 13.1 °C 1019.2 hPa Calm   6.4 km/h 96 % 0.0 mm 0 W/m2
00:15 13.8 °C 13.2 °C 1019.2 hPa North 1.6 km/h 6.4 km/h 96 % 0.0 mm 0 W/m2
00:20 14.0 °C 13.4 °C 1019.2 hPa Calm   6.4 km/h 96 % 0.0 mm 0 W/m2
00:25 13.9 °C 13.3 °C 1019.2 hPa NNE 6.4 km/h 6.4 km/h 96 % 0.0 mm 0 W/m2
00:30 14.2 °C 13.5 °C 1019.2 hPa NE 6.4 km/h 6.4 km/h 96 % 0.0 mm 0 W/m2
00:35 14.2 °C 13.6 °C 1019.2 hPa NE 3.2 km/h 6.4 km/h 96 % 0.0 mm 0 W/m2
00:40 14.1 °C 13.5 °C 1019.5 hPa NE 3.2 km/h 8.0 km/h 96 % 0.0 mm 0 W/m2
00:45 14.1 °C 13.4 °C 1019.5 hPa North 4.8 km/h 8.0 km/h 96 % 0.0 mm 0 W/m2
00:50 13.9 °C 13.3 °C 1019.5 hPa Calm   9.7 km/h 96 % 0.0 mm 0 W/m2
00:55 13.7 °C 13.1 °C 1019.5 hPa NNW 6.4 km/h 9.7 km/h 96 % 0.0 mm 0 W/m2
01:00 13.6 °C 13.0 °C 1019.5 hPa North 3.2 km/h 8.0 km/h 96 % 0.0 mm 0 W/m2
01:05 13.6 °C 12.9 °C 1019.5 hPa Calm   6.4 km/h 96 % 0.0 mm 0 W/m2
01:10 13.5 °C 12.7 °C 1019.9 hPa NE 3.2 km/h 8.0 km/h 95 % 0.0 mm 0 W/m2
01:15 13.5 °C 12.7 °C 1019.9 hPa Calm   8.0 km/h 95 % 0.0 mm 0 W/m2
01:20 13.6 °C 12.8 °C 1019.9 hPa North 4.8 km/h 8.0 km/h 95 % 0.0 mm 0 W/m2
01:25 13.5 °C 12.7 °C 1019.9 hPa NE 3.2 km/h 8.0 km/h 95 % 0.0 mm 0 W/m2
01:30 13.4 °C 12.7 °C 1019.9 hPa NNE 3.2 km/h 8.0 km/h 95 % 0.0 mm 0 W/m2
01:35 13.4 °C 12.4 °C 1020.2 hPa Calm   6.4 km/h 94 % 0.0 mm 0 W/m2
01:40 13.2 °C 12.3 °C 1020.2 hPa NE 6.4 km/h 8.0 km/h 94 % 0.0 mm 0 W/m2
01:45 13.2 °C 12.2 °C 1020.2 hPa NE 6.4 km/h 8.0 km/h 94 % 0.0 mm 0 W/m2
01:50 13.1 °C 12.2 °C 1020.2 hPa NE 3.2 km/h 8.0 km/h 94 % 0.0 mm 0 W/m2
01:55 13.1 °C 12.1 °C 1020.2 hPa NE 4.8 km/h 8.0 km/h 94 % 0.0 mm 0 W/m2
02:00 12.9 °C 11.8 °C 1020.2 hPa NE 3.2 km/h 8.0 km/h 93 % 0.0 mm 0 W/m2
02:05 12.8 °C 11.7 °C 1020.2 hPa NE 1.6 km/h 4.8 km/h 93 % 0.0 mm 0 W/m2
02:10 12.7 °C 11.6 °C 1020.2 hPa Calm   4.8 km/h 93 % 0.0 mm 0 W/m2
02:15 12.6 °C 11.6 °C 1020.2 hPa NE 1.6 km/h 4.8 km/h 94 % 0.0 mm 0 W/m2
02:20 12.4 °C 11.3 °C 1020.2 hPa Calm   4.8 km/h 93 % 0.0 mm 0 W/m2
02:25 12.2 °C 11.3 °C 1020.2 hPa Calm   4.8 km/h 94 % 0.0 mm 0 W/m2
02:30 12.1 °C 11.2 °C 1020.2 hPa Calm   4.8 km/h 94 % 0.0 mm 0 W/m2
02:35 12.0 °C 11.1 °C 1020.2 hPa Calm   4.8 km/h 94 % 0.0 mm 0 W/m2
02:40 11.8 °C 10.8 °C 1020.2 hPa Calm   4.8 km/h 94 % 0.0 mm 0 W/m2
02:45 11.7 °C 10.9 °C 1020.2 hPa Calm   1.6 km/h 95 % 0.0 mm 0 W/m2
02:50 11.6 °C 10.6 °C 1020.5 hPa Calm     94 % 0.0 mm 0 W/m2
02:55 11.4 °C 10.6 °C 1020.5 hPa Calm     95 % 0.0 mm 0 W/m2
03:00 11.3 °C 10.6 °C 1020.5 hPa Calm   3.2 km/h 95 % 0.0 mm 0 W/m2
03:05 11.2 °C 10.4 °C 1020.5 hPa Calm   3.2 km/h 95 % 0.0 mm 0 W/m2
03:10 11.2 °C 10.6 °C 1020.5 hPa Calm     96 % 0.0 mm 0 W/m2
03:15 11.1 °C 10.3 °C 1020.5 hPa Calm     95 % 0.0 mm 0 W/m2
03:20 11.0 °C 10.2 °C 1020.5 hPa Calm     95 % 0.0 mm 0 W/m2
03:25 10.9 °C 10.3 °C 1020.5 hPa Calm     96 % 0.0 mm 0 W/m2
03:30 11.0 °C 10.4 °C 1020.5 hPa Calm     96 % 0.0 mm 0 W/m2
03:35 10.9 °C 10.3 °C 1020.5 hPa Calm     96 % 0.0 mm 0 W/m2
03:40 10.8 °C 10.2 °C 1020.5 hPa Calm     96 % 0.0 mm 0 W/m2
03:45 10.8 °C 10.2 °C 1020.5 hPa Calm     96 % 0.0 mm 0 W/m2
03:50 10.7 °C 10.1 °C 1020.5 hPa Calm     96 % 0.0 mm 0 W/m2
03:55 10.6 °C 9.9 °C 1020.9 hPa Calm     96 % 0.0 mm 0 W/m2
04:00 10.6 °C 9.9 °C 1020.9 hPa Calm     96 % 0.0 mm 0 W/m2
04:05 10.4 °C 9.8 °C 1020.9 hPa Calm   1.6 km/h 96 % 0.0 mm 0 W/m2
04:10 10.4 °C 9.8 °C 1020.9 hPa NE 1.6 km/h 1.6 km/h 96 % 0.0 mm 0 W/m2
04:15 10.4 °C 10.0 °C 1020.9 hPa Calm   3.2 km/h 97 % 0.0 mm 0 W/m2
04:20 10.6 °C 10.1 °C 1020.9 hPa North 1.6 km/h 6.4 km/h 97 % 0.0 mm 0 W/m2
04:25 10.7 °C 10.3 °C 1020.9 hPa Calm   6.4 km/h 97 % 0.0 mm 0 W/m2
04:30 10.7 °C 10.3 °C 1020.9 hPa NNW 1.6 km/h 4.8 km/h 97 % 0.0 mm 0 W/m2
04:35 10.8 °C 10.3 °C 1020.9 hPa Calm   4.8 km/h 97 % 0.0 mm 0 W/m2
04:40 10.7 °C 10.3 °C 1020.9 hPa Calm   1.6 km/h 97 % 0.0 mm 0 W/m2
04:45 10.7 °C 10.1 °C 1020.9 hPa Calm     96 % 0.0 mm 0 W/m2
04:50 10.8 °C 10.3 °C 1021.2 hPa Calm     97 % 0.0 mm 0 W/m2
04:55 10.6 °C 10.0 °C 1021.2 hPa Calm   1.6 km/h 96 % 0.0 mm 0 W/m2
05:00 10.6 °C 10.2 °C 1021.2 hPa Calm   1.6 km/h 97 % 0.0 mm 0 W/m2
05:05 10.5 °C 10.0 °C 1021.2 hPa Calm   1.6 km/h 97 % 0.0 mm 0 W/m2
05:10 10.5 °C 10.0 °C 1021.2 hPa Calm   4.8 km/h 97 % 0.0 mm 0 W/m2
05:15 10.5 °C 10.0 °C 1021.2 hPa Calm   4.8 km/h 97 % 0.0 mm 0 W/m2
05:20 10.4 °C 9.9 °C 1021.2 hPa Calm   4.8 km/h 97 % 0.0 mm 0 W/m2
05:25 10.4 °C 9.9 °C 1021.2 hPa Calm   4.8 km/h 97 % 0.0 mm 0 W/m2
05:30 10.4 °C 9.9 °C 1021.6 hPa Calm   4.8 km/h 97 % 0.0 mm 0 W/m2
05:35 10.6 °C 10.1 °C 1021.6 hPa Calm   4.8 km/h 97 % 0.0 mm 0 W/m2
05:45 10.8 °C 10.3 °C 1021.6 hPa North 3.2 km/h 9.7 km/h 97 % 0.0 mm 0 W/m2
05:50 10.7 °C 10.2 °C 1021.6 hPa North 1.6 km/h 9.7 km/h 97 % 0.0 mm 0 W/m2
05:55 10.6 °C 10.1 °C 1021.6 hPa Calm   4.8 km/h 97 % 0.0 mm 0 W/m2
06:00 10.6 °C 10.2 °C 1021.6 hPa Calm   3.2 km/h 97 % 0.0 mm 0 W/m2
06:05 10.5 °C 10.0 °C 1021.6 hPa Calm   3.2 km/h 97 % 0.0 mm 0 W/m2
06:10 10.4 °C 10.0 °C 1021.9 hPa Calm   3.2 km/h 97 % 0.0 mm 0 W/m2
06:15 10.5 °C 10.0 °C 1021.6 hPa Calm   1.6 km/h 97 % 0.0 mm 0 W/m2
06:20 10.4 °C 9.9 °C 1021.9 hPa Calm   4.8 km/h 97 % 0.0 mm 0 W/m2
06:25 10.3 °C 9.8 °C 1021.9 hPa Calm   4.8 km/h 97 % 0.0 mm 0 W/m2
06:30 10.3 °C 9.8 °C 1021.9 hPa Calm   3.2 km/h 97 % 0.0 mm 5 W/m2
06:35 10.3 °C 9.8 °C 1021.9 hPa Calm   3.2 km/h 97 % 0.0 mm 9 W/m2
06:40 10.3 °C 9.8 °C 1021.9 hPa Calm   3.2 km/h 97 % 0.0 mm 12 W/m2
06:50 10.4 °C 10.1 °C 1022.2 hPa Calm   4.8 km/h 98 % 0.0 mm 19 W/m2
06:55 10.3 °C 9.9 °C 1022.2 hPa Calm     97 % 0.0 mm 23 W/m2
07:00 10.4 °C 10.0 °C 1022.2 hPa Calm     97 % 0.0 mm 28 W/m2
07:05 10.3 °C 9.9 °C 1022.2 hPa North 1.6 km/h 1.6 km/h 97 % 0.0 mm 32 W/m2
07:10 10.4 °C 10.0 °C 1022.2 hPa Calm   3.2 km/h 97 % 0.0 mm 33 W/m2
07:15 10.5 °C 10.2 °C 1022.2 hPa Calm   3.2 km/h 98 % 0.0 mm 35 W/m2
07:20 10.7 °C 10.4 °C 1022.6 hPa Calm   1.6 km/h 98 % 0.0 mm 37 W/m2
07:25 11.0 °C 10.7 °C 1022.6 hPa NE 6.4 km/h 9.7 km/h 98 % 0.0 mm 40 W/m2
07:30 11.1 °C 10.8 °C 1022.6 hPa Calm   9.7 km/h 98 % 0.0 mm 42 W/m2
07:35 11.3 °C 11.0 °C 1022.6 hPa NNE 6.4 km/h 8.0 km/h 98 % 0.0 mm 42 W/m2
07:40 11.3 °C 11.0 °C 1022.6 hPa North 3.2 km/h 9.7 km/h 98 % 0.0 mm 42 W/m2
07:45 11.5 °C 11.2 °C 1022.9 hPa NNW 8.0 km/h 11.3 km/h 98 % 0.0 mm 44 W/m2
07:50 11.7 °C 11.4 °C 1022.9 hPa NNW 3.2 km/h 11.3 km/h 98 % 0.0 mm 44 W/m2
07:55 11.7 °C 11.4 °C 1022.9 hPa NNE 6.4 km/h 11.3 km/h 98 % 0.0 mm 46 W/m2
08:00 11.8 °C 11.5 °C 1022.9 hPa Calm   11.3 km/h 98 % 0.0 mm 54 W/m2
08:05 12.1 °C 11.7 °C 1022.9 hPa North 3.2 km/h 9.7 km/h 98 % 0.0 mm 220 W/m2
08:10 12.1 °C 11.6 °C 1022.9 hPa Calm   9.7 km/h 97 % 0.0 mm 234 W/m2
08:15 12.2 °C 11.8 °C 1023.2 hPa NNE 4.8 km/h 9.7 km/h 97 % 0.0 mm 243 W/m2
08:20 12.4 °C 12.0 °C 1023.2 hPa NNW 1.6 km/h 9.7 km/h 97 % 0.0 mm 139 W/m2
08:25 12.7 °C 12.0 °C 1023.2 hPa North 6.4 km/h 8.0 km/h 96 % 0.0 mm 292 W/m2
08:30 12.9 °C 12.1 °C 1023.2 hPa NNE 4.8 km/h 9.7 km/h 95 % 0.0 mm 306 W/m2
08:35 13.1 °C 12.3 °C 1023.2 hPa Calm   9.7 km/h 95 % 0.0 mm 260 W/m2
08:40 13.3 °C 12.2 °C 1023.2 hPa NNE 6.4 km/h 11.3 km/h 93 % 0.0 mm 306 W/m2
08:45 13.5 °C 12.2 °C 1023.2 hPa NE 4.8 km/h 11.3 km/h 92 % 0.0 mm 195 W/m2
08:50 13.7 °C 12.2 °C 1023.2 hPa ENE 6.4 km/h 11.3 km/h 91 % 0.0 mm 369 W/m2
08:55 13.8 °C 12.1 °C 1023.2 hPa NE 3.2 km/h 8.0 km/h 89 % 0.0 mm 223 W/m2
09:00 13.9 °C 12.2 °C 1023.2 hPa Calm   8.0 km/h 89 % 0.0 mm 320 W/m2
09:05 14.2 °C 12.2 °C 1023.6 hPa NE 4.8 km/h 8.0 km/h 88 % 0.0 mm 390 W/m2
09:10 14.4 °C 12.1 °C 1023.6 hPa ENE 6.4 km/h 14.5 km/h 86 % 0.0 mm 411 W/m2
09:15 14.6 °C 12.1 °C 1023.6 hPa NE 3.2 km/h 14.5 km/h 85 % 0.0 mm 431 W/m2
09:20 14.7 °C 12.2 °C 1023.6 hPa East 8.0 km/h 11.3 km/h 85 % 0.0 mm 445 W/m2
09:25 14.9 °C 12.4 °C 1023.6 hPa NNE 6.4 km/h 11.3 km/h 85 % 0.0 mm 457 W/m2
09:30 15.2 °C 12.7 °C 1023.6 hPa Calm   11.3 km/h 85 % 0.0 mm 469 W/m2
09:35 15.6 °C 13.0 °C 1023.6 hPa NE 3.2 km/h 8.0 km/h 85 % 0.0 mm 478 W/m2
09:40 15.4 °C 12.2 °C 1023.9 hPa East 3.2 km/h 12.9 km/h 81 % 0.0 mm 475 W/m2
09:45 15.6 °C 12.9 °C 1023.9 hPa North 11.3 km/h 12.9 km/h 84 % 0.0 mm 482 W/m2
09:50 15.4 °C 12.2 °C 1023.9 hPa NNE 4.8 km/h 11.3 km/h 81 % 0.0 mm 487 W/m2
09:55 15.4 °C 12.4 °C 1023.9 hPa ENE 4.8 km/h 11.3 km/h 82 % 0.0 mm 499 W/m2
10:00 15.8 °C 12.9 °C 1023.9 hPa Calm   11.3 km/h 83 % 0.0 mm 545 W/m2
10:05 15.8 °C 12.3 °C 1023.9 hPa North 4.8 km/h 9.7 km/h 80 % 0.0 mm 557 W/m2
10:10 16.1 °C 12.6 °C 1023.9 hPa East 4.8 km/h 11.3 km/h 80 % 0.0 mm 571 W/m2
10:15 16.2 °C 12.4 °C 1023.9 hPa Calm   12.9 km/h 78 % 0.0 mm 585 W/m2
10:20 16.6 °C 12.9 °C 1023.9 hPa North 3.2 km/h 12.9 km/h 79 % 0.0 mm 603 W/m2
10:25 16.4 °C 12.6 °C 1023.9 hPa NE 3.2 km/h 9.7 km/h 78 % 0.0 mm 615 W/m2
10:30 16.7 °C 13.0 °C 1023.9 hPa East 3.2 km/h 9.7 km/h 79 % 0.0 mm 629 W/m2
10:40 17.1 °C 12.8 °C 1024.3 hPa NE 6.4 km/h 16.1 km/h 76 % 0.0 mm 647 W/m2
10:45 17.1 °C 12.8 °C 1024.3 hPa ENE 6.4 km/h 14.5 km/h 76 % 0.0 mm 659 W/m2
10:50 17.3 °C 13.8 °C 1024.3 hPa NNE 3.2 km/h 14.5 km/h 80 % 0.0 mm 671 W/m2
10:55 17.1 °C 12.6 °C 1024.3 hPa ESE 12.9 km/h 16.1 km/h 75 % 0.0 mm 684 W/m2
11:00 17.2 °C 12.9 °C 1024.3 hPa NE 3.2 km/h 16.1 km/h 76 % 0.0 mm 698 W/m2
11:05 17.3 °C 13.0 °C 1024.3 hPa North 6.4 km/h 14.5 km/h 76 % 0.0 mm 719 W/m2
11:10 17.3 °C 13.1 °C 1024.3 hPa North 1.6 km/h 12.9 km/h 76 % 0.0 mm 715 W/m2
11:15 17.6 °C 12.7 °C 1024.3 hPa NE 6.4 km/h 11.3 km/h 73 % 0.0 mm 731 W/m2
11:20 17.9 °C 13.2 °C 1024.3 hPa NE 1.6 km/h 11.3 km/h 74 % 0.0 mm 710 W/m2
11:25 18.0 °C 12.9 °C 1024.3 hPa NE 1.6 km/h 11.3 km/h 72 % 0.0 mm 747 W/m2
11:30 17.9 °C 13.0 °C 1024.3 hPa ENE 4.8 km/h 11.3 km/h 73 % 0.0 mm 759 W/m2
11:35 18.3 °C 13.4 °C 1024.3 hPa NNE 3.2 km/h 11.3 km/h 73 % 0.0 mm 770 W/m2
11:40 18.7 °C 13.1 °C 1024.3 hPa North 3.2 km/h 11.3 km/h 70 % 0.0 mm 782 W/m2
11:45 18.6 °C 13.2 °C 1023.9 hPa North 4.8 km/h 9.7 km/h 71 % 0.0 mm 788 W/m2
11:50 18.7 °C 13.4 °C 1024.3 hPa ENE 3.2 km/h 9.7 km/h 71 % 0.0 mm 800 W/m2
11:55 19.0 °C 13.8 °C 1024.3 hPa NNE 6.4 km/h 11.3 km/h 72 % 0.0 mm 807 W/m2
12:00 18.9 °C 13.1 °C 1024.3 hPa NE 3.2 km/h 12.9 km/h 69 % 0.0 mm 810 W/m2
12:05 19.3 °C 13.7 °C 1024.3 hPa North 8.0 km/h 12.9 km/h 70 % 0.0 mm 821 W/m2
12:10 19.4 °C 13.4 °C 1024.3 hPa NE 3.2 km/h 11.3 km/h 68 % 0.0 mm 824 W/m2
12:15 19.4 °C 13.6 °C 1024.3 hPa Calm   11.3 km/h 69 % 0.0 mm 826 W/m2
12:20 19.8 °C 13.7 °C 1024.3 hPa NE 4.8 km/h 11.3 km/h 68 % 0.0 mm 837 W/m2
12:25 19.9 °C 13.3 °C 1024.3 hPa NNE 4.8 km/h 12.9 km/h 66 % 0.0 mm 846 W/m2
12:30 20.2 °C 13.4 °C 1024.3 hPa NE 4.8 km/h 12.9 km/h 65 % 0.0 mm 846 W/m2
12:35 20.6 °C 14.2 °C 1024.3 hPa ENE 1.6 km/h 9.7 km/h 67 % 0.0 mm 856 W/m2
12:45 20.7 °C 13.4 °C 1024.3 hPa ENE 3.2 km/h 12.9 km/h 63 % 0.0 mm 870 W/m2
12:50 20.8 °C 14.4 °C 1024.3 hPa NW 3.2 km/h 11.3 km/h 67 % 0.0 mm 870 W/m2
12:55 20.8 °C 13.7 °C 1024.3 hPa NNE 3.2 km/h 9.7 km/h 64 % 0.0 mm 872 W/m2
13:00 20.9 °C 14.8 °C 1024.3 hPa West 9.7 km/h 11.3 km/h 68 % 0.0 mm 875 W/m2
13:05 20.9 °C 13.8 °C 1024.3 hPa NNW 6.4 km/h 12.9 km/h 64 % 0.0 mm 879 W/m2
13:10 21.3 °C 16.0 °C 1024.3 hPa NW 4.8 km/h 17.7 km/h 72 % 0.0 mm 884 W/m2
13:15 20.3 °C 14.0 °C 1024.3 hPa WNW 11.3 km/h 17.7 km/h 67 % 0.0 mm 884 W/m2
13:20 20.4 °C 15.2 °C 1024.3 hPa WSW 6.4 km/h 17.7 km/h 72 % 0.0 mm 886 W/m2
13:25 19.6 °C 13.9 °C 1024.3 hPa West 6.4 km/h 16.1 km/h 70 % 0.0 mm 888 W/m2
13:30 19.7 °C 15.1 °C 1024.3 hPa WSW 3.2 km/h 16.1 km/h 75 % 0.0 mm 889 W/m2
13:35 19.2 °C 14.0 °C 1024.3 hPa West 6.4 km/h 14.5 km/h 72 % 0.0 mm 891 W/m2
13:40 19.2 °C 14.0 °C 1024.3 hPa West 3.2 km/h 16.1 km/h 72 % 0.0 mm 891 W/m2
13:45 19.7 °C 15.1 °C 1024.3 hPa West 14.5 km/h 16.1 km/h 75 % 0.0 mm 893 W/m2
13:50 19.0 °C 14.3 °C 1024.3 hPa West 12.9 km/h 16.1 km/h 74 % 0.0 mm 895 W/m2
13:55 19.1 °C 14.1 °C 1024.3 hPa WNW 6.4 km/h 17.7 km/h 73 % 0.0 mm 896 W/m2
14:00 19.0 °C 14.0 °C 1024.3 hPa West 4.8 km/h 17.7 km/h 73 % 0.0 mm 896 W/m2
14:05 18.7 °C 14.6 °C 1024.3 hPa WNW 6.4 km/h 19.3 km/h 77 % 0.0 mm 893 W/m2
14:10 18.7 °C 14.0 °C 1024.3 hPa WNW 9.7 km/h 19.3 km/h 74 % 0.0 mm 891 W/m2
14:15 18.7 °C 14.1 °C 1024.3 hPa WNW 9.7 km/h 19.3 km/h 75 % 0.0 mm 889 W/m2
14:20 19.7 °C 15.8 °C 1024.3 hPa NW 4.8 km/h 19.3 km/h 78 % 0.0 mm 889 W/m2
14:25 19.7 °C 14.7 °C 1024.3 hPa West 12.9 km/h 19.3 km/h 73 % 0.0 mm 888 W/m2
14:30 19.5 °C 14.7 °C 1024.3 hPa WNW 17.7 km/h 19.3 km/h 74 % 0.0 mm 884 W/m2
14:35 19.1 °C 14.8 °C 1024.3 hPa NW 14.5 km/h 19.3 km/h 76 % 0.0 mm 884 W/m2
14:40 19.1 °C 14.5 °C 1024.3 hPa West 17.7 km/h 19.3 km/h 75 % 0.0 mm 881 W/m2
14:50 19.7 °C 15.1 °C 1024.3 hPa NW 9.7 km/h 19.3 km/h 75 % 0.0 mm 872 W/m2
14:55 19.9 °C 14.9 °C 1024.3 hPa WNW 14.5 km/h 20.9 km/h 73 % 0.0 mm 872 W/m2
15:00 19.4 °C 14.9 °C 1024.3 hPa WNW 9.7 km/h 22.5 km/h 75 % 0.0 mm 863 W/m2
15:05 19.9 °C 14.7 °C 1024.3 hPa West 12.9 km/h 22.5 km/h 72 % 0.0 mm 858 W/m2
15:10 19.5 °C 14.5 °C 1024.3 hPa WSW 6.4 km/h 17.7 km/h 73 % 0.0 mm 856 W/m2
15:15 20.1 °C 15.3 °C 1024.3 hPa West 4.8 km/h 19.3 km/h 74 % 0.0 mm 851 W/m2
15:20 20.4 °C 15.2 °C 1024.3 hPa West 8.0 km/h 19.3 km/h 72 % 0.0 mm 846 W/m2
15:25 20.6 °C 15.4 °C 1024.3 hPa West 8.0 km/h 17.7 km/h 72 % 0.0 mm 840 W/m2
15:30 20.8 °C 15.5 °C 1024.3 hPa West 4.8 km/h 16.1 km/h 72 % 0.0 mm 831 W/m2
15:45 19.6 °C 14.0 °C 1024.3 hPa West 12.9 km/h 20.9 km/h 70 % 0.0 mm 816 W/m2
15:50 19.1 °C 14.4 °C 1024.3 hPa WSW 19.3 km/h 22.5 km/h 74 % 0.0 mm 805 W/m2
15:55 19.6 °C 15.4 °C 1023.9 hPa WSW 6.4 km/h 22.5 km/h 77 % 0.0 mm 796 W/m2
16:00 20.3 °C 15.5 °C 1023.9 hPa WSW 12.9 km/h 19.3 km/h 74 % 0.0 mm 788 W/m2
16:05 20.4 °C 16.0 °C 1023.9 hPa WNW 11.3 km/h 20.9 km/h 76 % 0.0 mm 780 W/m2
16:10 19.8 °C 15.0 °C 1023.9 hPa WSW 6.4 km/h 22.5 km/h 74 % 0.0 mm 772 W/m2
16:15 19.9 °C 15.2 °C 1023.9 hPa WNW 17.7 km/h 22.5 km/h 74 % 0.0 mm 763 W/m2
16:20 20.1 °C 15.7 °C 1023.9 hPa North 12.9 km/h 22.5 km/h 76 % 0.0 mm 756 W/m2
16:25 20.2 °C 15.4 °C 1023.9 hPa WSW 8.0 km/h 22.5 km/h 74 % 0.0 mm 747 W/m2
16:30 20.3 °C 15.3 °C 1023.9 hPa WSW 6.4 km/h 22.5 km/h 73 % 0.0 mm 735 W/m2
16:35 20.4 °C 16.0 °C 1023.9 hPa West 4.8 km/h 19.3 km/h 76 % 0.0 mm 728 W/m2
16:40 20.7 °C 15.4 °C 1023.9 hPa WNW 4.8 km/h 19.3 km/h 72 % 0.0 mm 714 W/m2
16:45 20.4 °C 15.7 °C 1023.9 hPa West 12.9 km/h 19.3 km/h 74 % 0.0 mm 705 W/m2
16:50 20.3 °C 15.8 °C 1023.9 hPa West 12.9 km/h 19.3 km/h 75 % 0.0 mm 694 W/m2
16:55 20.7 °C 15.9 °C 1023.9 hPa WSW 12.9 km/h 19.3 km/h 74 % 0.0 mm 684 W/m2
17:00 21.1 °C 16.7 °C 1023.9 hPa West 8.0 km/h 14.5 km/h 76 % 0.0 mm 677 W/m2
17:05 20.9 °C 15.9 °C 1023.9 hPa WNW 8.0 km/h 17.7 km/h 73 % 0.0 mm 666 W/m2
17:10 20.8 °C 16.0 °C 1023.9 hPa West 4.8 km/h 17.7 km/h 74 % 0.0 mm 652 W/m2
17:15 20.9 °C 15.9 °C 1023.9 hPa WSW 9.7 km/h 14.5 km/h 73 % 0.0 mm 642 W/m2
17:20 21.3 °C 16.0 °C 1023.9 hPa WSW 14.5 km/h 14.5 km/h 72 % 0.0 mm 633 W/m2
17:25 20.7 °C 15.9 °C 1023.9 hPa West 4.8 km/h 14.5 km/h 74 % 0.0 mm 622 W/m2
17:30 20.9 °C 15.4 °C 1023.9 hPa West 6.4 km/h 14.5 km/h 71 % 0.0 mm 606 W/m2
17:35 21.3 °C 15.6 °C 1023.9 hPa WNW 8.0 km/h 12.9 km/h 70 % 0.0 mm 594 W/m2
17:40 21.3 °C 15.1 °C 1023.9 hPa West 6.4 km/h 14.5 km/h 68 % 0.0 mm 578 W/m2
17:45 21.3 °C 15.6 °C 1023.6 hPa WSW 6.4 km/h 16.1 km/h 70 % 0.0 mm 568 W/m2
17:50 20.8 °C 14.9 °C 1023.6 hPa West 6.4 km/h 19.3 km/h 69 % 0.0 mm 554 W/m2
17:55 20.6 °C 14.9 °C 1023.9 hPa WSW 6.4 km/h 19.3 km/h 70 % 0.0 mm 540 W/m2
18:00 20.3 °C 14.7 °C 1023.9 hPa WNW 8.0 km/h 16.1 km/h 70 % 0.0 mm 524 W/m2
18:05 20.3 °C 15.1 °C 1023.9 hPa WSW 14.5 km/h 19.3 km/h 72 % 0.0 mm 512 W/m2
18:10 20.3 °C 14.9 °C 1023.9 hPa WSW 6.4 km/h 19.3 km/h 71 % 0.0 mm 501 W/m2
18:15 20.6 °C 14.7 °C 1023.9 hPa NW 8.0 km/h 17.7 km/h 69 % 0.0 mm 485 W/m2
18:20 20.3 °C 15.1 °C 1023.9 hPa WNW 4.8 km/h 19.3 km/h 72 % 0.0 mm 473 W/m2
18:25 20.3 °C 15.3 °C 1023.9 hPa West 8.0 km/h 19.3 km/h 73 % 0.0 mm 459 W/m2
18:30 20.8 °C 15.6 °C 1023.6 hPa West 9.7 km/h 19.3 km/h 72 % 0.0 mm 445 W/m2
18:35 20.8 °C 15.4 °C 1023.9 hPa WNW 12.9 km/h 16.1 km/h 71 % 0.0 mm 432 W/m2
18:40 20.6 °C 16.0 °C 1023.9 hPa West 1.6 km/h 17.7 km/h 75 % 0.0 mm 418 W/m2
18:45 21.0 °C 15.8 °C 1023.6 hPa WNW 3.2 km/h 17.7 km/h 72 % 0.0 mm 401 W/m2
18:50 21.1 °C 15.4 °C 1023.6 hPa WNW 6.4 km/h 12.9 km/h 70 % 0.0 mm 387 W/m2
18:55 20.9 °C 15.5 °C 1023.6 hPa WNW 6.4 km/h 17.7 km/h 71 % 0.0 mm 374 W/m2
19:00 20.8 °C 15.8 °C 1023.6 hPa WNW 6.4 km/h 17.7 km/h 73 % 0.0 mm 359 W/m2
19:05 20.6 °C 15.5 °C 1023.6 hPa NW 12.9 km/h 14.5 km/h 73 % 0.0 mm 345 W/m2
19:10 20.5 °C 15.7 °C 1023.6 hPa West 6.4 km/h 16.1 km/h 74 % 0.0 mm 330 W/m2
19:15 20.7 °C 15.7 °C 1023.6 hPa West 11.3 km/h 16.1 km/h 73 % 0.0 mm 315 W/m2
19:20 20.6 °C 15.3 °C 1023.9 hPa West 4.8 km/h 16.1 km/h 72 % 0.0 mm 304 W/m2
19:25 20.5 °C 15.7 °C 1023.9 hPa Calm   16.1 km/h 74 % 0.0 mm 294 W/m2
19:30 20.3 °C 15.3 °C 1023.9 hPa West 6.4 km/h 12.9 km/h 73 % 0.0 mm 278 W/m2
19:35 20.3 °C 15.5 °C 1023.9 hPa NW 6.4 km/h 12.9 km/h 74 % 0.0 mm 258 W/m2
19:40 20.3 °C 15.5 °C 1023.9 hPa West 3.2 km/h 14.5 km/h 74 % 0.0 mm 244 W/m2
19:45 20.3 °C 15.3 °C 1023.9 hPa WNW 3.2 km/h 14.5 km/h 73 % 0.0 mm 221 W/m2
19:50 20.1 °C 15.5 °C 1023.9 hPa WSW 8.0 km/h 11.3 km/h 75 % 0.0 mm 200 W/m2
19:55 19.9 °C 15.3 °C 1023.9 hPa West 3.2 km/h 12.9 km/h 75 % 0.0 mm 188 W/m2
20:00 19.8 °C 15.3 °C 1023.9 hPa West 4.8 km/h 12.9 km/h 75 % 0.0 mm 181 W/m2
20:05 19.8 °C 15.5 °C 1023.9 hPa WSW 1.6 km/h 12.9 km/h 76 % 0.0 mm 195 W/m2
20:10 19.9 °C 15.3 °C 1023.9 hPa West 3.2 km/h 12.9 km/h 75 % 0.0 mm 167 W/m2
20:15 19.8 °C 15.4 °C 1023.9 hPa WNW 1.6 km/h 11.3 km/h 76 % 0.0 mm 137 W/m2
20:20 19.6 °C 15.5 °C 1023.9 hPa WNW 6.4 km/h 12.9 km/h 77 % 0.0 mm 116 W/m2
20:25 19.5 °C 15.4 °C 1023.9 hPa West 1.6 km/h 12.9 km/h 77 % 0.0 mm 97 W/m2
20:30 19.4 °C 15.5 °C 1023.9 hPa West 6.4 km/h 9.7 km/h 78 % 0.0 mm 44 W/m2
20:35 19.2 °C 15.5 °C 1023.9 hPa WNW 4.8 km/h 9.7 km/h 79 % 0.0 mm 46 W/m2
20:40 19.1 °C 15.5 °C 1023.9 hPa WNW 3.2 km/h 8.0 km/h 80 % 0.0 mm 37 W/m2
20:45 18.9 °C 15.6 °C 1023.9 hPa WNW 4.8 km/h 8.0 km/h 81 % 0.0 mm 32 W/m2
20:50 18.8 °C 15.7 °C 1023.9 hPa NW 1.6 km/h 6.4 km/h 82 % 0.0 mm 30 W/m2
20:55 18.7 °C 15.6 °C 1023.9 hPa Calm   6.4 km/h 82 % 0.0 mm 30 W/m2
21:00 18.6 °C 15.6 °C 1023.9 hPa Calm   6.4 km/h 83 % 0.0 mm 30 W/m2
21:05 18.4 °C 15.7 °C 1023.9 hPa Calm   4.8 km/h 84 % 0.0 mm 33 W/m2
21:10 18.3 °C 15.8 °C 1023.9 hPa Calm   4.8 km/h 85 % 0.0 mm 37 W/m2
21:15 18.3 °C 15.9 °C 1023.9 hPa Calm   4.8 km/h 86 % 0.0 mm 28 W/m2
21:20 18.3 °C 15.9 °C 1023.9 hPa WNW 1.6 km/h 4.8 km/h 86 % 0.0 mm 21 W/m2
21:25 18.2 °C 15.8 °C 1023.9 hPa Calm   4.8 km/h 86 % 0.0 mm 16 W/m2
21:30 17.9 °C 15.7 °C 1023.9 hPa Calm   3.2 km/h 87 % 0.0 mm 11 W/m2
21:35 17.6 °C 15.6 °C 1024.3 hPa Calm   3.2 km/h 88 % 0.0 mm 9 W/m2
21:40 17.3 °C 15.5 °C 1023.9 hPa WNW 1.6 km/h 3.2 km/h 89 % 0.0 mm 5 W/m2
21:45 17.1 °C 15.4 °C 1023.9 hPa Calm   3.2 km/h 90 % 0.0 mm 0 W/m2
21:50 16.9 °C 15.2 °C 1023.9 hPa Calm   1.6 km/h 90 % 0.0 mm 0 W/m2
21:55 16.7 °C 15.4 °C 1024.3 hPa Calm   1.6 km/h 92 % 0.0 mm 0 W/m2
22:00 16.6 °C 15.3 °C 1024.3 hPa Calm   1.6 km/h 92 % 0.0 mm 0 W/m2
22:05 16.4 °C 15.1 °C 1024.3 hPa Calm   1.6 km/h 92 % 0.0 mm 0 W/m2
22:10 16.3 °C 15.0 °C 1024.3 hPa Calm     92 % 0.0 mm 0 W/m2
22:15 16.2 °C 15.0 °C 1024.3 hPa Calm     93 % 0.0 mm 0 W/m2
22:20 16.1 °C 14.8 °C 1024.3 hPa Calm     92 % 0.0 mm 0 W/m2
22:25 16.0 °C 14.9 °C 1024.3 hPa WNW 3.2 km/h 4.8 km/h 93 % 0.0 mm 0 W/m2
22:30 15.8 °C 14.6 °C 1024.6 hPa Calm   4.8 km/h 93 % 0.0 mm 0 W/m2
22:35 15.7 °C 14.6 °C 1024.6 hPa Calm   3.2 km/h 93 % 0.0 mm 0 W/m2
22:40 15.7 °C 14.8 °C 1024.6 hPa Calm   1.6 km/h 94 % 0.0 mm 0 W/m2
22:45 15.6 °C 14.4 °C 1024.6 hPa Calm   4.8 km/h 93 % 0.0 mm 0 W/m2
22:50 15.5 °C 14.5 °C 1024.6 hPa NNW 3.2 km/h 4.8 km/h 94 % 0.0 mm 0 W/m2
22:55 15.3 °C 14.4 °C 1024.6 hPa Calm   6.4 km/h 94 % 0.0 mm 0 W/m2
23:00 15.2 °C 14.3 °C 1024.6 hPa NNW 3.2 km/h 6.4 km/h 94 % 0.0 mm 0 W/m2
23:05 15.2 °C 14.3 °C 1024.9 hPa NNW 3.2 km/h 4.8 km/h 94 % 0.0 mm 0 W/m2
23:10 15.3 °C 14.3 °C 1024.9 hPa Calm   4.8 km/h 94 % 0.0 mm 0 W/m2
23:15 15.3 °C 14.4 °C 1024.9 hPa Calm   4.8 km/h 94 % 0.0 mm 0 W/m2
23:20 15.1 °C 14.2 °C 1024.9 hPa Calm   4.8 km/h 94 % 0.0 mm 0 W/m2
23:25 15.1 °C 14.1 °C 1024.6 hPa Calm   4.8 km/h 94 % 0.0 mm 0 W/m2
23:30 15.2 °C 14.4 °C 1024.6 hPa Calm   4.8 km/h 95 % 0.0 mm 0 W/m2
23:35 15.1 °C 14.3 °C 1024.6 hPa Calm   1.6 km/h 95 % 0.0 mm 0 W/m2
23:40 15.2 °C 14.4 °C 1024.6 hPa Calm   1.6 km/h 95 % 0.0 mm 0 W/m2
23:45 15.1 °C 14.3 °C 1024.6 hPa Calm     95 % 0.0 mm 0 W/m2
23:50 15.1 °C 14.3 °C 1024.6 hPa Calm   1.6 km/h 95 % 0.0 mm 0 W/m2
23:55 14.9 °C 14.2 °C 1024.9 hPa Calm   1.6 km/h 95 % 0.0 mm 0 W/m2
Avec l'autorisation de Weather Underground - 1.75 mb